Weather History for Troy, MI

Change the Weather History Date:

Monday, July 1, 2013

  Actual Average (KDET) Record (KDET)
Temperature  
Mean Temperature 64 °F -  
Max Temperature 68 °F 80 °F 96 °F (2002)
Min Temperature 60 °F 62 °F 47 °F (1965)
Degree Days  
Heating Degree Days 1    
Growing Degree Days 14 (Base 50)    
Moisture  
Dew Point 54 °F    
Average Humidity 69    
Maximum Humidity 93    
Minimum Humidity 51    
Precipitation  
Precipitation 0.00 in - - ()
Sea Level Pressure  
Sea Level Pressure 30.04 in    
Wind  
Wind Speed 8 mph (NNE)    
Max Wind Speed 15 mph    
Max Gust Speed 22 mph    
Visibility 10 miles    
Events Rain    
Averages and records for this station are not official NWS values.
T = Trace of Precipitation, MM = Missing Value Source: NWS Daily Summary

Daily Weather History Graph

Daily Weather History Graph

Search for Another Location

Airport:

Trip Planner

Search our weather history database for the weather conditions in past years. The results will help you decide how hot, cold, wet, or windy it might be!

Date:

Astronomy

Jul. 01, 2013 Rise Set
Actual Time 5:59 AM EDT 9:13 PM EDT
Civil Twilight 5:24 AM EDT 9:48 PM EDT
Nautical Twilight 4:39 AM EDT 10:33 PM EDT
Astronomical Twilight 3:44 AM EDT 11:27 PM EDT
Moon 1:33 AM EDT 3:23 PM EDT
Length of Visible Light 16h 24m
Length of Day
15h 14m
Waning Crescent, 35% of the Moon is Illuminated
Jul 1
Waning Crescent
Jul 8
New
Jul 15
First Quarter
Jul 22
Full
Jul 29
Last Quarter

Hourly Weather History & Observations

Time (EDT) Temp. Dew Point Humidity Pressure Visibility Wind Dir Wind Speed Gust Speed Precip Events Conditions
12:15 AM 63.0 °F 44.8 °F 51% 29.99 in 10.0 mi North 6.9 mph - N/A   Clear
12:35 AM 62.8 °F 45.5 °F 53% 29.99 in 10.0 mi NNE 6.9 mph - N/A   Clear
12:55 AM 62.6 °F 46.4 °F 55% 29.99 in 10.0 mi NNE 8.1 mph - N/A   Clear
1:15 AM 62.6 °F 47.1 °F 57% 29.99 in 10.0 mi North 5.8 mph - N/A   Clear
1:35 AM 62.4 °F 48.2 °F 60% 29.99 in 10.0 mi North 4.6 mph - N/A   Clear
1:54 AM 62.6 °F 49.1 °F 61% 29.99 in 10.0 mi NNE 6.9 mph - N/A   Clear
2:15 AM 62.6 °F 49.3 °F 62% 29.98 in 10.0 mi North 9.2 mph - N/A   Clear
2:35 AM 62.6 °F 50.0 °F 63% 29.99 in 10.0 mi NNE 5.8 mph - N/A   Clear
2:54 AM 62.4 °F 50.4 °F 65% 29.98 in 10.0 mi NNE 6.9 mph - N/A   Clear
3:15 AM 62.6 °F 50.9 °F 66% 29.98 in 10.0 mi NNE 5.8 mph - N/A   Clear
3:34 AM 62.2 °F 50.9 °F 66% 29.98 in 10.0 mi NNE 8.1 mph - N/A   Clear
3:55 AM 62.1 °F 50.9 °F 67% 29.98 in 10.0 mi NNE 6.9 mph - N/A   Clear
4:15 AM 62.1 °F 50.9 °F 67% 29.99 in 10.0 mi NNE 8.1 mph - N/A   Clear
4:34 AM 61.9 °F 50.9 °F 67% 29.99 in 10.0 mi NNE 6.9 mph - N/A   Clear
4:55 AM 61.9 °F 51.1 °F 68% 29.99 in 10.0 mi NNE 6.9 mph - N/A   Clear
5:15 AM 61.7 °F 50.9 °F 68% 30.00 in 10.0 mi North 5.8 mph - N/A   Clear
5:35 AM 61.9 °F 50.9 °F 67% 30.01 in 10.0 mi NNE 6.9 mph - N/A   Clear
5:55 AM 61.9 °F 50.9 °F 67% 30.00 in 10.0 mi NNE 6.9 mph - N/A   Clear
6:15 AM 62.1 °F 50.7 °F 66% 30.00 in 10.0 mi NNE 6.9 mph - N/A   Clear
6:35 AM 62.2 °F 50.9 °F 66% 30.00 in 10.0 mi NNE 6.9 mph - N/A   Clear
6:55 AM 62.6 °F 50.7 °F 65% 30.01 in 10.0 mi NNE 5.8 mph - N/A   Clear
7:15 AM 62.6 °F 50.9 °F 66% 30.01 in 10.0 mi North 5.8 mph - N/A   Clear
7:35 AM 63.0 °F 50.9 °F 65% 30.01 in 10.0 mi NNE 8.1 mph - N/A   Clear
7:55 AM 63.5 °F 50.7 °F 63% 30.01 in 10.0 mi NNE 10.4 mph - N/A   Clear
8:15 AM 64.4 °F 50.9 °F 62% 30.02 in 10.0 mi NNE 5.8 mph - N/A   Scattered Clouds
8:35 AM 64.8 °F 51.3 °F 62% 30.01 in 10.0 mi NNE 11.5 mph 16.1 mph N/A   Scattered Clouds
8:55 AM 65.3 °F 51.8 °F 62% 30.02 in 10.0 mi NNE 6.9 mph 16.1 mph N/A   Clear
9:15 AM 65.3 °F 51.8 °F 62% 30.02 in 10.0 mi NNE 10.4 mph 17.3 mph N/A   Clear
9:35 AM 65.8 °F 52.7 °F 62% 30.02 in 10.0 mi NNE 10.4 mph 18.4 mph N/A   Clear
9:54 AM 66.0 °F 52.9 °F 63% 30.03 in 10.0 mi NNE 13.8 mph 18.4 mph N/A   Scattered Clouds
10:15 AM 66.7 °F 53.8 °F 63% 30.03 in 10.0 mi NNE 5.8 mph 16.1 mph N/A   Overcast
10:35 AM 67.3 °F 54.1 °F 63% 30.03 in 10.0 mi NE 10.4 mph 16.1 mph N/A   Scattered Clouds
10:54 AM 68.0 °F 55.2 °F 64% 30.03 in 10.0 mi NNE 9.2 mph 16.1 mph N/A   Clear
11:15 AM 68.0 °F 55.2 °F 64% 30.03 in 10.0 mi NE 11.5 mph 15.0 mph N/A   Scattered Clouds
11:35 AM 67.8 °F 54.9 °F 63% 30.04 in 10.0 mi NNE 11.5 mph 18.4 mph N/A   Mostly Cloudy
11:55 AM 67.8 °F 55.4 °F 64% 30.04 in 10.0 mi NNE 11.5 mph - N/A   Overcast
12:15 PM 68.2 °F 55.4 °F 64% 30.05 in 10.0 mi NE 12.7 mph 17.3 mph N/A   Overcast
12:35 PM 68.5 °F 54.1 °F 60% 30.05 in 10.0 mi NE 15.0 mph 21.9 mph N/A   Mostly Cloudy
12:55 PM 68.7 °F 54.1 °F 60% 30.06 in 10.0 mi NNE 8.1 mph 18.4 mph N/A   Scattered Clouds
1:15 PM 68.0 °F 52.7 °F 58% 30.06 in 10.0 mi NNE 11.5 mph 18.4 mph N/A   Mostly Cloudy
1:35 PM 68.0 °F 52.0 °F 56% 30.07 in 10.0 mi NNE 8.1 mph 18.4 mph N/A   Light Drizzle
1:55 PM 68.4 °F 52.3 °F 57% 30.07 in 10.0 mi NE 12.7 mph 17.3 mph N/A   Overcast
2:15 PM 68.9 °F 51.4 °F 54% 30.08 in 10.0 mi NE 10.4 mph - N/A   Mostly Cloudy
2:35 PM 68.9 °F 51.8 °F 54% 30.07 in 10.0 mi NNE 12.7 mph 16.1 mph N/A   Overcast
2:55 PM 68.4 °F 52.9 °F 58% 30.07 in 10.0 mi NNE 8.1 mph - N/A Rain Light Rain
3:15 PM 68.5 °F 53.1 °F 58% 30.07 in 10.0 mi NE 13.8 mph - N/A Rain Light Rain
3:35 PM 68.4 °F 52.7 °F 57% 30.07 in 10.0 mi NNE 12.7 mph 19.6 mph N/A Rain Light Rain
3:55 PM 68.7 °F 52.0 °F 55% 30.07 in 10.0 mi NE 11.5 mph 17.3 mph N/A Rain Light Rain
4:14 PM 68.9 °F 52.0 °F 55% 30.07 in 10.0 mi NE 10.4 mph 17.3 mph N/A   Mostly Cloudy
4:35 PM 68.0 °F 54.3 °F 62% 30.07 in 10.0 mi NE 8.1 mph - N/A Rain Light Rain
4:55 PM 67.6 °F 54.0 °F 61% 30.07 in 10.0 mi NE 11.5 mph 16.1 mph N/A Rain Light Rain
5:15 PM 66.7 °F 56.1 °F 69% 30.07 in 7.0 mi NE 10.4 mph - N/A Rain Light Rain
5:35 PM 66.4 °F 56.5 °F 70% 30.07 in 10.0 mi NNE 6.9 mph - N/A Rain Light Rain
5:54 PM 65.7 °F 58.5 °F 78% 30.08 in 5.0 mi NNE 6.9 mph - N/A Rain Rain
6:15 PM 64.0 °F 60.6 °F 89% 30.07 in 7.0 mi North 6.9 mph - N/A Rain Light Rain
6:35 PM 63.7 °F 60.8 °F 90% 30.07 in 7.0 mi NNE 5.8 mph - N/A Rain Light Rain
6:55 PM 63.9 °F 61.0 °F 90% 30.07 in 10.0 mi NNE 3.5 mph - N/A Rain Light Rain
7:15 PM 63.9 °F 60.8 °F 90% 30.08 in 10.0 mi NNE 5.8 mph - N/A Rain Light Rain
7:35 PM 63.5 °F 61.3 °F 93% 30.09 in 10.0 mi NE 6.9 mph - N/A Rain Light Rain
7:55 PM 63.5 °F 61.2 °F 92% 30.09 in 7.0 mi NE 6.9 mph - N/A Rain Light Rain
8:15 PM 63.1 °F 60.8 °F 92% 30.10 in 5.0 mi NE 4.6 mph - N/A Rain Rain
8:35 PM 62.8 °F 60.6 °F 93% 30.09 in 7.0 mi North 6.9 mph - N/A Rain Light Rain
8:55 PM 62.8 °F 59.9 °F 90% 30.09 in 10.0 mi North 6.9 mph - N/A   Overcast
9:15 PM 62.6 °F 60.1 °F 91% 30.09 in 10.0 mi North 10.4 mph - N/A   Overcast
9:34 PM 62.6 °F 59.2 °F 89% 30.09 in 10.0 mi North 8.1 mph - N/A   Overcast
9:55 PM 62.1 °F 59.0 °F 90% 30.09 in 10.0 mi North 10.4 mph - N/A   Overcast
10:15 PM 61.7 °F 57.7 °F 87% 30.09 in 10.0 mi North 8.1 mph - N/A   Overcast
10:35 PM 61.3 °F 57.7 °F 88% 30.10 in 10.0 mi North 8.1 mph - N/A   Overcast
10:55 PM 61.3 °F 57.2 °F 86% 30.10 in 10.0 mi North 10.4 mph - N/A   Overcast
11:14 PM 61.2 °F 56.5 °F 85% 30.08 in 10.0 mi North 8.1 mph - N/A   Mostly Cloudy
11:35 PM 60.8 °F 55.9 °F 84% 30.08 in 10.0 mi North 5.8 mph - N/A   Light Drizzle
11:55 PM 60.8 °F 55.8 °F 83% 30.08 in 10.0 mi NNE 6.9 mph - N/A   Overcast